createdAt,value
2018-08-10T00:00:14.106Z,42.46
2018-08-10T00:02:41.693Z,42.99
2018-08-10T00:05:09.962Z,43.79
2018-08-10T00:07:38.115Z,41.88
2018-08-10T00:10:08.446Z,42.29
2018-08-10T00:12:36.182Z,41.63
2018-08-10T00:15:05.572Z,41.53
2018-08-10T00:17:33.264Z,40.99
2018-08-10T00:20:00.864Z,42.14
2018-08-10T00:22:28.402Z,41.16
2018-08-10T00:24:56.001Z,40.77
2018-08-10T00:27:23.606Z,40.71
2018-08-10T00:29:51.205Z,40.18
2018-08-10T00:32:18.821Z,39.76
2018-08-10T00:34:46.594Z,40.54
2018-08-10T00:37:14.222Z,40.72
2018-08-10T00:39:41.813Z,41.39
2018-08-10T00:42:09.424Z,40.99
2018-08-10T00:44:37.007Z,41.21
2018-08-10T00:47:04.673Z,40.88
2018-08-10T00:49:32.254Z,41.48
2018-08-10T00:51:59.869Z,40.32
2018-08-10T00:54:27.573Z,41.03
2018-08-10T00:56:55.131Z,41.66
2018-08-10T00:59:22.709Z,42.45
2018-08-10T01:01:50.307Z,42.28
2018-08-10T01:04:17.894Z,41.00
2018-08-10T01:06:45.469Z,41.65
2018-08-10T01:09:13.220Z,41.63
2018-08-10T01:11:40.835Z,40.92
2018-08-10T01:14:08.768Z,42.27
2018-08-10T01:16:36.532Z,41.95
2018-08-10T01:19:04.198Z,42.66
2018-08-10T01:21:32.143Z,42.36
2018-08-10T01:23:59.697Z,42.62
2018-08-10T01:26:27.243Z,42.04
2018-08-10T01:28:54.959Z,42.41
2018-08-10T01:31:22.510Z,43.05
2018-08-10T01:33:50.206Z,42.20
2018-08-10T01:36:17.706Z,42.52
2018-08-10T01:38:45.225Z,42.72
2018-08-10T01:41:12.872Z,41.99
2018-08-10T01:43:40.434Z,42.17
2018-08-10T01:46:08.012Z,43.12
2018-08-10T01:48:35.609Z,43.33
2018-08-10T01:51:03.206Z,43.21
2018-08-10T01:53:30.821Z,43.73
2018-08-10T01:55:58.429Z,44.48
2018-08-10T01:58:26.073Z,43.85
2018-08-10T02:00:53.591Z,43.71
2018-08-10T02:03:21.254Z,43.71
2018-08-10T02:05:48.812Z,45.16
2018-08-10T02:08:16.396Z,44.97
2018-08-10T02:10:43.989Z,46.06
2018-08-10T02:13:11.648Z,45.15
2018-08-10T02:15:39.193Z,44.92
2018-08-10T02:18:06.756Z,44.35
2018-08-10T02:20:34.298Z,44.70
2018-08-10T02:23:01.897Z,45.23
2018-08-10T02:25:29.467Z,45.47
2018-08-10T02:27:56.974Z,45.39
2018-08-10T02:30:24.528Z,45.24
2018-08-10T02:32:52.235Z,44.04
2018-08-10T02:35:19.874Z,44.95
2018-08-10T02:37:47.389Z,45.50
2018-08-10T02:40:19.212Z,45.34
2018-08-10T02:42:47.767Z,44.93
2018-08-10T02:45:15.626Z,45.62
2018-08-10T02:47:43.434Z,45.29
2018-08-10T02:50:11.026Z,46.42
2018-08-10T02:52:38.543Z,45.35
2018-08-10T02:55:07.632Z,45.51
2018-08-10T02:57:35.470Z,44.67
2018-08-10T03:00:04.829Z,44.93
2018-08-10T03:02:32.756Z,45.88
2018-08-10T03:05:00.294Z,45.17
2018-08-10T03:07:27.857Z,45.20
2018-08-10T03:09:55.430Z,44.75
2018-08-10T03:12:23.031Z,44.50
2018-08-10T03:14:50.600Z,44.58
2018-08-10T03:17:18.160Z,44.30
2018-08-10T03:19:45.770Z,44.83
2018-08-10T03:22:13.437Z,44.73
2018-08-10T03:24:40.941Z,44.45
2018-08-10T03:27:08.497Z,44.56
2018-08-10T03:29:36.353Z,44.45
2018-08-10T03:32:04.221Z,43.97
2018-08-10T03:34:31.813Z,43.65
2018-08-10T03:36:59.624Z,44.55
2018-08-10T03:39:27.206Z,43.64
2018-08-10T03:41:54.794Z,44.25
2018-08-10T03:44:22.427Z,44.85
2018-08-10T03:46:50.020Z,44.06
2018-08-10T03:49:17.846Z,44.15
2018-08-10T03:51:45.422Z,44.38
2018-08-10T03:54:13.060Z,44.47
2018-08-10T03:56:40.609Z,45.19
2018-08-10T03:59:08.185Z,44.87
2018-08-10T04:01:35.725Z,45.45
2018-08-10T04:04:03.407Z,45.01
2018-08-10T04:06:30.965Z,44.22
2018-08-10T04:08:58.588Z,44.82
2018-08-10T04:11:26.145Z,45.15
2018-08-10T04:13:53.690Z,44.94
2018-08-10T04:16:21.261Z,44.96
2018-08-10T04:18:48.908Z,45.58
2018-08-10T04:21:16.496Z,45.69
2018-08-10T04:23:44.344Z,44.90
2018-08-10T04:26:11.969Z,44.96
2018-08-10T04:28:39.513Z,45.14
2018-08-10T04:31:07.163Z,44.92
2018-08-10T04:33:34.681Z,46.31
2018-08-10T04:36:02.258Z,46.54
2018-08-10T04:38:29.908Z,46.51
2018-08-10T04:40:57.469Z,45.39
2018-08-10T04:43:25.206Z,44.69
2018-08-10T04:45:52.881Z,44.39
2018-08-10T04:48:20.463Z,44.98
2018-08-10T04:50:47.908Z,45.12
2018-08-10T04:53:15.456Z,44.98
2018-08-10T04:55:42.986Z,45.28
2018-08-10T04:58:10.509Z,44.81
2018-08-10T05:00:38.075Z,44.85
2018-08-10T05:03:06.456Z,44.77
2018-08-10T05:05:34.060Z,45.28
2018-08-10T05:08:01.604Z,45.79
2018-08-10T05:10:29.694Z,44.58
2018-08-10T05:12:57.342Z,45.74
2018-08-10T05:15:24.936Z,44.91
2018-08-10T05:17:52.608Z,44.90
2018-08-10T05:20:20.148Z,44.95
2018-08-10T05:22:47.934Z,45.21
2018-08-10T05:25:15.479Z,45.23
2018-08-10T05:27:43.069Z,44.97
2018-08-10T05:30:10.964Z,45.33
2018-08-10T05:32:38.909Z,44.80
2018-08-10T05:35:07.450Z,44.15
2018-08-10T05:37:35.035Z,44.36
2018-08-10T05:40:03.434Z,44.35
2018-08-10T05:42:30.973Z,44.26
2018-08-10T05:44:58.513Z,45.00
2018-08-10T05:47:25.993Z,44.42
2018-08-10T05:49:53.608Z,44.28
2018-08-10T05:52:21.115Z,44.68
2018-08-10T05:54:48.651Z,45.27
2018-08-10T05:57:16.221Z,45.68
2018-08-10T05:59:43.789Z,46.25
2018-08-10T06:02:11.338Z,45.42
2018-08-10T06:04:38.870Z,46.53
2018-08-10T06:07:06.380Z,46.41
2018-08-10T06:09:34.084Z,45.78
2018-08-10T06:12:01.670Z,44.67
2018-08-10T06:14:29.320Z,44.16
2018-08-10T06:16:56.954Z,44.65
2018-08-10T06:19:24.677Z,44.35
2018-08-10T06:21:52.177Z,45.78
2018-08-10T06:24:19.693Z,44.18
2018-08-10T06:26:47.297Z,43.95
2018-08-10T06:29:14.866Z,44.15
2018-08-10T06:31:42.481Z,43.56
2018-08-10T06:34:10.085Z,45.64
2018-08-10T06:36:37.629Z,45.71
2018-08-10T06:39:08.530Z,46.39
2018-08-10T06:41:36.505Z,47.20
2018-08-10T06:44:04.673Z,47.21
2018-08-10T06:46:32.246Z,47.06
2018-08-10T06:48:59.811Z,47.53
2018-08-10T06:51:27.365Z,47.56
2018-08-10T06:53:55.093Z,47.47
2018-08-10T06:56:22.725Z,46.72
2018-08-10T06:58:50.269Z,46.29
2018-08-10T07:01:17.844Z,47.28
2018-08-10T07:03:45.401Z,48.82
2018-08-10T07:06:13.073Z,49.44
2018-08-10T07:08:40.749Z,48.89
2018-08-10T07:11:08.293Z,48.81
2018-08-10T07:13:35.914Z,48.15
2018-08-10T07:16:03.484Z,47.47
2018-08-10T07:18:31.090Z,47.21
2018-08-10T07:20:58.692Z,48.26
2018-08-10T07:23:26.256Z,47.40
2018-08-10T07:25:53.820Z,47.98
2018-08-10T07:28:21.384Z,47.84
2018-08-10T07:30:48.922Z,48.24
2018-08-10T07:33:16.512Z,48.26
2018-08-10T07:35:44.091Z,47.91
2018-08-10T07:38:11.796Z,48.63
2018-08-10T07:40:39.409Z,49.14
2018-08-10T07:43:06.992Z,48.15
2018-08-10T07:45:34.552Z,49.31
2018-08-10T07:48:02.105Z,48.30
2018-08-10T07:50:29.729Z,49.61
2018-08-10T07:52:57.596Z,49.93
2018-08-10T07:55:25.157Z,49.31
2018-08-10T07:57:52.731Z,48.53
2018-08-10T08:00:20.313Z,49.09
2018-08-10T08:02:47.907Z,48.32
2018-08-10T08:05:15.561Z,48.93
2018-08-10T08:07:43.113Z,47.47
2018-08-10T08:10:10.658Z,47.82
2018-08-10T08:12:38.215Z,47.94
2018-08-10T08:15:05.855Z,47.46
2018-08-10T08:17:33.513Z,47.29
2018-08-10T08:20:01.207Z,47.56
2018-08-10T08:22:28.745Z,47.06
2018-08-10T08:24:56.311Z,46.45
2018-08-10T08:27:23.897Z,48.37
2018-08-10T08:29:51.481Z,47.64
2018-08-10T08:32:19.068Z,49.30
2018-08-10T08:34:46.749Z,49.72
2018-08-10T08:37:14.290Z,49.75
2018-08-10T08:40:16.829Z,49.67
2018-08-10T08:42:45.635Z,50.29
2018-08-10T08:45:52.352Z,51.13
2018-08-10T08:48:20.229Z,50.64
2018-08-10T08:50:49.265Z,49.62
2018-08-10T08:53:16.809Z,48.70
2018-08-10T08:55:46.646Z,48.66
2018-08-10T08:58:14.227Z,48.81
2018-08-10T09:00:41.805Z,48.06
2018-08-10T09:04:27.959Z,47.07
2018-08-10T09:06:55.655Z,45.53
2018-08-10T09:09:37.304Z,45.30
2018-08-10T09:12:05.015Z,43.97
2018-08-10T09:14:44.856Z,44.62
2018-08-10T09:17:12.452Z,44.56
2018-08-10T09:19:40.973Z,43.55
2018-08-10T09:22:08.891Z,43.29
2018-08-10T09:24:36.500Z,45.88
2018-08-10T09:27:04.269Z,45.48
2018-08-10T09:29:32.798Z,46.15
2018-08-10T09:32:00.432Z,45.74
2018-08-10T09:34:28.518Z,44.65
2018-08-10T09:36:56.030Z,44.19
2018-08-10T09:39:23.617Z,44.33
2018-08-10T09:41:51.439Z,44.46
2018-08-10T09:44:18.970Z,45.17
2018-08-10T09:46:46.569Z,43.93
2018-08-10T09:49:14.361Z,43.15
2018-08-10T09:51:42.364Z,43.17
2018-08-10T09:54:09.982Z,45.10
2018-08-10T09:56:37.677Z,44.78
2018-08-10T09:59:05.293Z,43.59
2018-08-10T10:01:38.764Z,43.27
2018-08-10T10:04:06.358Z,42.95
2018-08-10T10:06:34.032Z,44.05
2018-08-10T10:09:01.589Z,44.79
2018-08-10T10:11:30.125Z,43.79
2018-08-10T10:13:57.717Z,43.94
2018-08-10T10:16:25.272Z,43.18
2018-08-10T10:18:52.833Z,43.07
2018-08-10T10:21:20.657Z,43.11
2018-08-10T10:23:48.197Z,42.66
2018-08-10T10:26:15.781Z,43.09
2018-08-10T10:28:43.333Z,42.31
2018-08-10T10:31:10.897Z,42.92
2018-08-10T10:33:38.509Z,42.30
2018-08-10T10:36:06.101Z,41.75
2018-08-10T10:38:33.673Z,41.74
2018-08-10T10:41:01.253Z,41.29
2018-08-10T10:43:28.946Z,41.39
2018-08-10T10:45:56.757Z,41.54
2018-08-10T10:48:24.309Z,41.07
2018-08-10T10:50:51.958Z,41.84
2018-08-10T10:53:19.616Z,40.66
2018-08-10T10:55:47.155Z,40.30
2018-08-10T10:58:14.686Z,39.05
2018-08-10T11:00:42.250Z,40.33
2018-08-10T11:03:09.814Z,39.25
2018-08-10T11:05:37.379Z,39.14
2018-08-10T11:08:04.937Z,39.39
2018-08-10T11:10:32.527Z,39.76
2018-08-10T11:13:00.110Z,39.19
2018-08-10T11:15:27.745Z,38.24
2018-08-10T11:17:55.382Z,38.24
2018-08-10T11:20:22.992Z,37.33
2018-08-10T11:22:50.685Z,36.71
2018-08-10T11:25:18.299Z,37.25
2018-08-10T11:27:45.865Z,36.22
2018-08-10T11:30:13.547Z,35.06
2018-08-10T11:32:41.265Z,36.84
2018-08-10T11:35:09.263Z,36.35
2018-08-10T11:37:36.971Z,36.57
2018-08-10T11:40:11.252Z,36.30
2018-08-10T11:42:38.907Z,36.92
2018-08-10T11:45:09.786Z,37.64
2018-08-10T11:47:37.570Z,37.29
2018-08-10T11:50:05.386Z,37.76
2018-08-10T11:52:32.965Z,37.80
2018-08-10T11:55:00.855Z,37.96
2018-08-10T11:57:28.558Z,36.77
2018-08-10T11:59:56.125Z,36.73
2018-08-10T12:02:23.634Z,37.25
2018-08-10T12:04:51.187Z,36.88
2018-08-10T12:07:18.953Z,35.71
2018-08-10T12:09:46.669Z,35.97
2018-08-10T12:12:14.311Z,36.12
2018-08-10T12:14:41.931Z,36.21
2018-08-10T12:17:09.461Z,37.08
2018-08-10T12:19:37.051Z,36.81
2018-08-10T12:22:04.920Z,36.64
2018-08-10T12:24:32.596Z,36.28
2018-08-10T12:27:00.364Z,36.34
2018-08-10T12:29:28.101Z,35.85
2018-08-10T12:31:55.682Z,36.69
2018-08-10T12:34:23.250Z,36.65
2018-08-10T12:36:50.828Z,36.09
2018-08-10T12:39:18.468Z,36.32
2018-08-10T12:41:46.031Z,36.02
2018-08-10T12:44:13.648Z,36.41
2018-08-10T12:46:41.305Z,35.95
2018-08-10T12:49:08.903Z,35.47
2018-08-10T12:51:36.705Z,35.43
2018-08-10T12:54:04.396Z,34.49
2018-08-10T12:56:31.981Z,35.30
2018-08-10T12:58:59.677Z,37.15
2018-08-10T13:01:27.293Z,34.79
2018-08-10T13:03:54.912Z,34.70
2018-08-10T13:06:22.531Z,35.42
2018-08-10T13:08:50.139Z,35.13
2018-08-10T13:11:17.749Z,34.10
2018-08-10T13:13:45.380Z,32.63
2018-08-10T13:16:12.999Z,32.98
2018-08-10T13:18:40.582Z,32.71
2018-08-10T13:21:08.413Z,31.44
2018-08-10T13:23:36.033Z,31.15
2018-08-10T13:26:03.633Z,31.82
2018-08-10T13:28:31.181Z,32.21
2018-08-10T13:30:58.775Z,30.97
2018-08-10T13:33:26.333Z,31.35
2018-08-10T13:35:53.896Z,31.54
2018-08-10T13:38:21.471Z,31.29
2018-08-10T13:40:49.188Z,32.00
2018-08-10T13:43:16.668Z,30.53
2018-08-10T13:45:44.283Z,30.13
2018-08-10T13:48:11.874Z,30.69
2018-08-10T13:50:39.478Z,31.08
2018-08-10T13:53:06.997Z,30.33
2018-08-10T13:55:34.598Z,30.80
2018-08-10T13:58:02.142Z,29.37
2018-08-10T14:00:29.825Z,30.16
2018-08-10T14:02:57.449Z,30.03
2018-08-10T14:05:25.042Z,30.26
2018-08-10T14:07:53.146Z,29.66
2018-08-10T14:10:20.830Z,29.70
2018-08-10T14:12:48.430Z,29.79
2018-08-10T14:15:16.002Z,30.76
2018-08-10T14:17:43.553Z,30.54
2018-08-10T14:20:11.402Z,30.18
2018-08-10T14:22:39.241Z,31.10
2018-08-10T14:25:08.625Z,29.52
2018-08-10T14:27:36.257Z,31.86
2018-08-10T14:30:07.390Z,34.92
2018-08-10T14:32:34.968Z,38.09
2018-08-10T14:35:02.919Z,38.03
2018-08-10T14:37:30.532Z,37.45
2018-08-10T14:39:58.193Z,38.16
2018-08-10T14:42:25.815Z,38.91
2018-08-10T14:44:53.457Z,39.69
2018-08-10T14:47:21.120Z,38.98
2018-08-10T14:49:48.705Z,39.48
2018-08-10T14:52:16.349Z,40.05
2018-08-10T14:54:43.955Z,39.85
2018-08-10T14:57:11.557Z,39.37
2018-08-10T14:59:39.138Z,40.65
2018-08-10T15:02:07.436Z,39.87
2018-08-10T15:04:35.047Z,38.34
2018-08-10T15:07:02.634Z,38.26
2018-08-10T15:09:30.243Z,39.67
2018-08-10T15:11:58.041Z,39.72
2018-08-10T15:14:25.530Z,38.81
2018-08-10T15:16:53.124Z,38.26
2018-08-10T15:19:20.777Z,36.42
2018-08-10T15:21:48.414Z,34.85
2018-08-10T15:24:16.099Z,28.10
2018-08-10T15:26:43.702Z,30.47
2018-08-10T15:29:11.295Z,32.66
2018-08-10T15:31:38.922Z,34.27
2018-08-10T15:34:06.503Z,34.51
2018-08-10T15:36:34.154Z,35.30
2018-08-10T15:39:02.118Z,34.68
2018-08-10T15:41:29.708Z,34.93
2018-08-10T15:43:57.284Z,34.50
2018-08-10T15:46:24.869Z,33.91
2018-08-10T15:48:52.421Z,33.05
2018-08-10T15:51:19.980Z,31.73
2018-08-10T15:53:48.150Z,30.99
2018-08-10T15:56:15.826Z,30.28
2018-08-10T15:58:43.421Z,31.06
2018-08-10T16:01:11.051Z,28.29
2018-08-10T16:03:38.645Z,28.70
2018-08-10T16:06:06.193Z,27.85
2018-08-10T16:08:33.762Z,28.09
2018-08-10T16:11:01.385Z,26.59
2018-08-10T16:13:29.015Z,26.35
2018-08-10T16:15:56.658Z,25.62
2018-08-10T16:18:24.274Z,26.28
2018-08-10T16:20:51.862Z,26.53
2018-08-10T16:23:19.477Z,26.18
2018-08-10T16:25:47.030Z,25.37
2018-08-10T16:28:14.694Z,24.49
2018-08-10T16:30:42.366Z,26.50
2018-08-10T16:33:10.023Z,27.37
2018-08-10T16:35:37.646Z,28.19
2018-08-10T16:38:05.337Z,25.98
2018-08-10T16:40:33.071Z,26.66
2018-08-10T16:43:00.698Z,27.58
2018-08-10T16:45:28.310Z,27.75
2018-08-10T16:47:55.916Z,28.32
2018-08-10T16:50:23.526Z,28.51
2018-08-10T16:52:51.364Z,29.20
2018-08-10T16:55:19.956Z,29.41
2018-08-10T16:57:48.606Z,29.39
2018-08-10T17:00:18.481Z,30.09
2018-08-10T17:02:47.566Z,31.53
2018-08-10T17:05:15.312Z,31.72
2018-08-10T17:07:43.207Z,32.44
2018-08-10T17:10:12.202Z,32.87
2018-08-10T17:12:41.195Z,33.95
2018-08-10T17:15:13.227Z,33.83
2018-08-10T17:17:41.879Z,35.14
2018-08-10T17:20:10.020Z,35.05
2018-08-10T17:22:37.653Z,35.34
2018-08-10T17:25:06.565Z,34.89
2018-08-10T17:27:34.305Z,35.57
2018-08-10T17:30:01.913Z,35.96
2018-08-10T17:32:29.569Z,36.13
2018-08-10T17:34:57.282Z,36.32
2018-08-10T17:37:24.931Z,36.51
2018-08-10T17:39:52.571Z,35.56
2018-08-10T17:42:20.242Z,35.97
2018-08-10T17:44:47.998Z,35.91
2018-08-10T17:47:15.632Z,36.23
2018-08-10T17:49:43.272Z,37.64
2018-08-10T17:52:12.230Z,37.85
2018-08-10T17:54:39.906Z,37.94
2018-08-10T17:57:07.712Z,38.37
2018-08-10T17:59:35.378Z,37.81
2018-08-10T18:02:03.092Z,38.69
2018-08-10T18:04:30.794Z,39.66
2018-08-10T18:06:58.366Z,40.30
2018-08-10T18:09:26.028Z,41.55
2018-08-10T18:11:53.648Z,41.59
2018-08-10T18:14:21.442Z,42.71
2018-08-10T18:16:49.259Z,42.65
2018-08-10T18:19:17.008Z,42.98
2018-08-10T18:21:44.651Z,42.43
2018-08-10T18:24:12.348Z,43.34
2018-08-10T18:26:40.029Z,43.79
2018-08-10T18:29:07.674Z,43.33
2018-08-10T18:31:35.639Z,43.64
2018-08-10T18:34:03.607Z,44.21
2018-08-10T18:36:31.829Z,44.46
2018-08-10T18:39:00.465Z,44.52
2018-08-10T18:41:28.225Z,43.83
2018-08-10T18:43:56.104Z,44.40
2018-08-10T18:46:23.800Z,44.31
2018-08-10T18:48:51.445Z,44.74
2018-08-10T18:51:19.189Z,45.94
2018-08-10T18:53:46.876Z,46.65
2018-08-10T18:56:15.436Z,47.47
2018-08-10T18:58:43.153Z,47.88
2018-08-10T19:01:10.805Z,48.42
2018-08-10T19:03:38.605Z,48.78
2018-08-10T19:06:06.427Z,48.04
2018-08-10T19:08:34.213Z,49.54
2018-08-10T19:11:02.065Z,49.79
2018-08-10T19:13:29.822Z,49.53
2018-08-10T19:15:57.538Z,49.72
2018-08-10T19:18:25.308Z,49.77
2018-08-10T19:20:53.286Z,49.14
2018-08-10T19:23:21.504Z,50.57
2018-08-10T19:25:49.254Z,51.75
2018-08-10T19:28:16.994Z,52.33
2018-08-10T19:30:44.774Z,52.45
2018-08-10T19:33:12.770Z,53.60
2018-08-10T19:35:40.477Z,53.69
2018-08-10T19:38:09.172Z,53.70
2018-08-10T19:40:36.826Z,53.46
2018-08-10T19:43:04.479Z,52.85
2018-08-10T19:45:32.560Z,51.71
2018-08-10T19:48:00.262Z,51.43
2018-08-10T19:50:28.042Z,51.07
2018-08-10T19:52:55.785Z,50.31
2018-08-10T19:55:23.524Z,52.46
2018-08-10T19:57:51.171Z,48.37
2018-08-10T20:00:18.885Z,48.80
2018-08-10T20:02:47.818Z,48.69
2018-08-10T20:05:15.901Z,49.35
2018-08-10T20:07:43.694Z,50.26
2018-08-10T20:10:12.245Z,48.73
2018-08-10T20:12:40.181Z,48.36
2018-08-10T20:15:11.918Z,48.89
2018-08-10T20:17:40.516Z,48.55
2018-08-10T20:20:10.087Z,48.99
2018-08-10T20:22:37.818Z,49.90
2018-08-10T20:25:06.707Z,50.40
2018-08-10T20:27:34.520Z,50.14
2018-08-10T20:30:02.401Z,51.31
2018-08-10T20:32:30.039Z,53.52
2018-08-10T20:34:58.378Z,53.40
2018-08-10T20:37:26.291Z,53.78
2018-08-10T20:39:54.039Z,54.52
2018-08-10T20:42:21.761Z,55.22
2018-08-10T20:44:49.511Z,55.95
2018-08-10T20:47:17.132Z,56.13
2018-08-10T20:49:44.839Z,56.87
2018-08-10T20:52:12.534Z,56.83
2018-08-10T20:54:40.138Z,57.83
2018-08-10T20:57:07.841Z,57.32
2018-08-10T20:59:35.540Z,57.46
2018-08-10T21:02:03.257Z,57.35
2018-08-10T21:04:30.829Z,56.62
2018-08-10T21:06:58.500Z,56.82
2018-08-10T21:09:26.126Z,57.06
2018-08-10T21:11:53.776Z,57.09
2018-08-10T21:14:21.455Z,56.84
2018-08-10T21:16:49.103Z,56.95
2018-08-10T21:19:16.901Z,57.07
2018-08-10T21:21:44.520Z,56.56
2018-08-10T21:24:12.718Z,57.83
2018-08-10T21:26:40.444Z,58.24
2018-08-10T21:29:08.121Z,57.90
2018-08-10T21:31:35.849Z,58.12
2018-08-10T21:34:03.447Z,58.91
2018-08-10T21:36:31.311Z,58.54
2018-08-10T21:38:58.921Z,58.64
2018-08-10T21:41:26.538Z,57.80
2018-08-10T21:43:54.085Z,57.67
2018-08-10T21:46:21.853Z,58.31
2018-08-10T21:48:49.422Z,58.89
2018-08-10T21:51:17.033Z,59.95
2018-08-10T21:53:44.630Z,59.98
2018-08-10T21:56:12.394Z,60.24
2018-08-10T21:58:40.670Z,59.01
2018-08-10T22:01:08.286Z,58.97
2018-08-10T22:03:35.946Z,58.37
2018-08-10T22:06:03.566Z,58.30
2018-08-10T22:08:31.252Z,59.49
2018-08-10T22:10:58.928Z,59.46
2018-08-10T22:13:32.367Z,58.87
2018-08-10T22:16:05.746Z,59.88
2018-08-10T22:18:39.349Z,58.96
2018-08-10T22:21:06.943Z,58.36
2018-08-10T22:23:34.636Z,60.77
2018-08-10T22:26:02.333Z,61.40
2018-08-10T22:28:29.942Z,61.82
2018-08-10T22:30:57.702Z,61.21
2018-08-10T22:33:25.702Z,61.41
2018-08-10T22:35:53.508Z,61.14
2018-08-10T22:38:21.133Z,60.98
2018-08-10T22:40:48.706Z,60.36
2018-08-10T22:43:16.312Z,61.13
2018-08-10T22:45:43.939Z,61.54
2018-08-10T22:48:11.606Z,61.40
2018-08-10T22:50:39.817Z,61.04
2018-08-10T22:53:07.559Z,60.71
2018-08-10T22:55:35.311Z,61.67
2018-08-10T22:58:02.954Z,61.04
2018-08-10T23:00:30.675Z,61.25
2018-08-10T23:02:58.353Z,61.40
2018-08-10T23:05:25.993Z,61.14
2018-08-10T23:07:53.633Z,60.47
2018-08-10T23:10:21.272Z,60.98
2018-08-10T23:12:49.872Z,61.11
2018-08-10T23:15:17.505Z,62.03
2018-08-10T23:17:45.146Z,61.33
2018-08-10T23:20:13.554Z,61.47
2018-08-10T23:22:41.257Z,62.20
2018-08-10T23:25:11.656Z,61.90
2018-08-10T23:27:39.912Z,62.62
2018-08-10T23:30:11.737Z,62.59
2018-08-10T23:32:39.401Z,63.26
2018-08-10T23:35:07.619Z,63.91
2018-08-10T23:37:35.423Z,64.17
2018-08-10T23:40:05.049Z,64.45
2018-08-10T23:42:32.691Z,64.43
2018-08-10T23:45:00.285Z,64.45
2018-08-10T23:47:27.925Z,64.50
2018-08-10T23:49:55.583Z,64.27
2018-08-10T23:52:23.177Z,64.17
2018-08-10T23:54:50.804Z,63.14
2018-08-10T23:57:18.363Z,63.39
2018-08-10T23:59:45.957Z,63.20
